sensor_id;sensor_type;location;lat;lon;timestamp;temperature;humidity
4604;DHT22;2314;48.272;11.562;2024-02-28T00:01:04;5.40;99.90
4604;DHT22;2314;48.272;11.562;2024-02-28T00:03:31;5.40;99.90
4604;DHT22;2314;48.272;11.562;2024-02-28T00:06:00;5.50;99.90
4604;DHT22;2314;48.272;11.562;2024-02-28T00:08:28;5.50;99.90
4604;DHT22;2314;48.272;11.562;2024-02-28T00:10:55;5.60;99.90
4604;DHT22;2314;48.272;11.562;2024-02-28T00:13:22;5.60;99.90
4604;DHT22;2314;48.272;11.562;2024-02-28T00:15:50;5.60;99.90
4604;DHT22;2314;48.272;11.562;2024-02-28T00:18:17;5.60;99.90
4604;DHT22;2314;48.272;11.562;2024-02-28T00:20:57;5.50;99.90
4604;DHT22;2314;48.272;11.562;2024-02-28T00:23:25;5.50;99.90
4604;DHT22;2314;48.272;11.562;2024-02-28T00:25:52;5.50;99.90
4604;DHT22;2314;48.272;11.562;2024-02-28T00:28:19;5.40;99.90
4604;DHT22;2314;48.272;11.562;2024-02-28T00:30:46;5.40;99.90
4604;DHT22;2314;48.272;11.562;2024-02-28T00:33:13;5.40;99.90
4604;DHT22;2314;48.272;11.562;2024-02-28T00:35:40;5.30;99.90
4604;DHT22;2314;48.272;11.562;2024-02-28T00:38:08;5.30;99.90
4604;DHT22;2314;48.272;11.562;2024-02-28T00:40:38;5.30;99.90
4604;DHT22;2314;48.272;11.562;2024-02-28T00:43:05;5.40;99.90
4604;DHT22;2314;48.272;11.562;2024-02-28T00:45:32;5.40;99.90
4604;DHT22;2314;48.272;11.562;2024-02-28T00:47:59;5.40;99.90
4604;DHT22;2314;48.272;11.562;2024-02-28T00:50:31;5.40;99.90
4604;DHT22;2314;48.272;11.562;2024-02-28T00:53:07;5.40;99.90
4604;DHT22;2314;48.272;11.562;2024-02-28T00:55:34;5.40;99.90
4604;DHT22;2314;48.272;11.562;2024-02-28T00:58:02;5.40;99.90
4604;DHT22;2314;48.272;11.562;2024-02-28T01:00:30;5.40;99.90
4604;DHT22;2314;48.272;11.562;2024-02-28T01:02:56;5.40;99.90
4604;DHT22;2314;48.272;11.562;2024-02-28T01:05:24;5.40;99.90
4604;DHT22;2314;48.272;11.562;2024-02-28T01:07:51;5.40;99.90
4604;DHT22;2314;48.272;11.562;2024-02-28T01:10:18;5.50;99.90
4604;DHT22;2314;48.272;11.562;2024-02-28T01:12:45;5.50;99.90
4604;DHT22;2314;48.272;11.562;2024-02-28T01:15:13;5.50;99.90
4604;DHT22;2314;48.272;11.562;2024-02-28T01:17:44;5.50;99.90
4604;DHT22;2314;48.272;11.562;2024-02-28T01:20:11;5.50;99.90
4604;DHT22;2314;48.272;11.562;2024-02-28T01:22:38;5.50;99.90
4604;DHT22;2314;48.272;11.562;2024-02-28T01:25:05;5.50;99.90
4604;DHT22;2314;48.272;11.562;2024-02-28T01:27:33;5.50;99.90
4604;DHT22;2314;48.272;11.562;2024-02-28T01:30:00;5.60;99.90
4604;DHT22;2314;48.272;11.562;2024-02-28T01:32:29;5.60;99.90
4604;DHT22;2314;48.272;11.562;2024-02-28T01:34:59;5.60;99.90
4604;DHT22;2314;48.272;11.562;2024-02-28T01:37:27;5.60;99.90
4604;DHT22;2314;48.272;11.562;2024-02-28T01:39:55;5.60;99.90
4604;DHT22;2314;48.272;11.562;2024-02-28T01:42:22;5.60;99.90
4604;DHT22;2314;48.272;11.562;2024-02-28T01:44:50;5.70;99.90
4604;DHT22;2314;48.272;11.562;2024-02-28T01:47:18;5.70;99.90
4604;DHT22;2314;48.272;11.562;2024-02-28T01:49:47;5.70;99.90
4604;DHT22;2314;48.272;11.562;2024-02-28T01:52:17;5.70;99.90
4604;DHT22;2314;48.272;11.562;2024-02-28T01:54:44;5.70;99.90
4604;DHT22;2314;48.272;11.562;2024-02-28T01:57:11;5.70;99.90
4604;DHT22;2314;48.272;11.562;2024-02-28T01:59:39;5.70;99.90
4604;DHT22;2314;48.272;11.562;2024-02-28T02:02:06;5.80;99.90
4604;DHT22;2314;48.272;11.562;2024-02-28T02:04:33;5.80;99.90
4604;DHT22;2314;48.272;11.562;2024-02-28T02:07:02;5.80;99.90
4604;DHT22;2314;48.272;11.562;2024-02-28T02:09:29;5.80;99.90
4604;DHT22;2314;48.272;11.562;2024-02-28T02:11:56;5.80;99.90
4604;DHT22;2314;48.272;11.562;2024-02-28T02:14:23;5.80;99.90
4604;DHT22;2314;48.272;11.562;2024-02-28T02:16:49;5.80;99.90
4604;DHT22;2314;48.272;11.562;2024-02-28T02:19:16;5.80;99.90
4604;DHT22;2314;48.272;11.562;2024-02-28T02:21:49;5.80;99.90
4604;DHT22;2314;48.272;11.562;2024-02-28T02:24:20;5.80;99.90
4604;DHT22;2314;48.272;11.562;2024-02-28T02:26:48;5.80;99.90
4604;DHT22;2314;48.272;11.562;2024-02-28T02:29:17;5.80;99.90
4604;DHT22;2314;48.272;11.562;2024-02-28T02:31:44;5.70;99.90
4604;DHT22;2314;48.272;11.562;2024-02-28T02:34:11;5.70;99.90
4604;DHT22;2314;48.272;11.562;2024-02-28T02:36:39;5.60;99.90
4604;DHT22;2314;48.272;11.562;2024-02-28T02:39:06;5.60;99.90
4604;DHT22;2314;48.272;11.562;2024-02-28T02:41:35;5.60;99.90
4604;DHT22;2314;48.272;11.562;2024-02-28T02:44:02;5.50;99.90
4604;DHT22;2314;48.272;11.562;2024-02-28T02:46:29;5.50;99.90
4604;DHT22;2314;48.272;11.562;2024-02-28T02:48:56;5.50;99.90
4604;DHT22;2314;48.272;11.562;2024-02-28T02:51:23;5.40;99.90
4604;DHT22;2314;48.272;11.562;2024-02-28T02:53:51;5.40;99.90
4604;DHT22;2314;48.272;11.562;2024-02-28T02:56:19;5.40;99.90
4604;DHT22;2314;48.272;11.562;2024-02-28T02:58:51;5.40;99.90
4604;DHT22;2314;48.272;11.562;2024-02-28T03:01:18;5.40;99.90
4604;DHT22;2314;48.272;11.562;2024-02-28T03:03:46;5.40;99.90
4604;DHT22;2314;48.272;11.562;2024-02-28T03:06:13;5.40;99.90
4604;DHT22;2314;48.272;11.562;2024-02-28T03:08:40;5.40;99.90
4604;DHT22;2314;48.272;11.562;2024-02-28T03:11:09;5.30;99.90
4604;DHT22;2314;48.272;11.562;2024-02-28T03:13:45;5.30;99.90
4604;DHT22;2314;48.272;11.562;2024-02-28T03:16:18;5.30;99.90
4604;DHT22;2314;48.272;11.562;2024-02-28T03:18:45;5.30;99.90
4604;DHT22;2314;48.272;11.562;2024-02-28T03:21:12;5.30;99.90
4604;DHT22;2314;48.272;11.562;2024-02-28T03:23:40;5.30;99.90
4604;DHT22;2314;48.272;11.562;2024-02-28T03:26:07;5.30;99.90
4604;DHT22;2314;48.272;11.562;2024-02-28T03:28:53;5.30;99.90
4604;DHT22;2314;48.272;11.562;2024-02-28T03:31:20;5.30;99.90
4604;DHT22;2314;48.272;11.562;2024-02-28T03:33:47;5.20;99.90
4604;DHT22;2314;48.272;11.562;2024-02-28T03:36:14;5.20;99.90
4604;DHT22;2314;48.272;11.562;2024-02-28T03:38:41;5.20;99.90
4604;DHT22;2314;48.272;11.562;2024-02-28T03:41:09;5.20;99.90
4604;DHT22;2314;48.272;11.562;2024-02-28T03:43:36;5.20;99.90
4604;DHT22;2314;48.272;11.562;2024-02-28T03:46:04;5.10;99.90
4604;DHT22;2314;48.272;11.562;2024-02-28T03:48:32;5.10;99.90
4604;DHT22;2314;48.272;11.562;2024-02-28T03:50:59;5.10;99.90
4604;DHT22;2314;48.272;11.562;2024-02-28T03:53:26;5.00;99.90
4604;DHT22;2314;48.272;11.562;2024-02-28T03:55:53;5.00;99.90
4604;DHT22;2314;48.272;11.562;2024-02-28T03:58:20;5.10;99.90
4604;DHT22;2314;48.272;11.562;2024-02-28T04:00:47;5.10;99.90
4604;DHT22;2314;48.272;11.562;2024-02-28T04:03:16;5.10;99.90
4604;DHT22;2314;48.272;11.562;2024-02-28T04:05:43;5.00;99.90
4604;DHT22;2314;48.272;11.562;2024-02-28T04:08:10;5.00;99.90
4604;DHT22;2314;48.272;11.562;2024-02-28T04:10:37;5.00;99.90
4604;DHT22;2314;48.272;11.562;2024-02-28T04:13:04;5.10;99.90
4604;DHT22;2314;48.272;11.562;2024-02-28T04:15:32;5.10;99.90
4604;DHT22;2314;48.272;11.562;2024-02-28T04:18:00;5.10;99.90
4604;DHT22;2314;48.272;11.562;2024-02-28T04:20:28;5.10;99.90
4604;DHT22;2314;48.272;11.562;2024-02-28T04:22:55;5.10;99.90
4604;DHT22;2314;48.272;11.562;2024-02-28T04:25:22;5.10;99.90
4604;DHT22;2314;48.272;11.562;2024-02-28T04:27:50;5.10;99.90
4604;DHT22;2314;48.272;11.562;2024-02-28T04:30:17;5.10;99.90
4604;DHT22;2314;48.272;11.562;2024-02-28T04:32:44;5.10;99.90
4604;DHT22;2314;48.272;11.562;2024-02-28T04:35:11;5.10;99.90
4604;DHT22;2314;48.272;11.562;2024-02-28T04:37:42;5.10;99.90
4604;DHT22;2314;48.272;11.562;2024-02-28T04:40:10;5.10;99.90
4604;DHT22;2314;48.272;11.562;2024-02-28T04:42:39;5.10;99.90
4604;DHT22;2314;48.272;11.562;2024-02-28T04:45:07;5.10;99.90
4604;DHT22;2314;48.272;11.562;2024-02-28T04:47:34;5.10;99.90
4604;DHT22;2314;48.272;11.562;2024-02-28T04:50:01;5.10;99.90
4604;DHT22;2314;48.272;11.562;2024-02-28T04:52:30;5.20;99.90
4604;DHT22;2314;48.272;11.562;2024-02-28T04:54:58;5.20;99.90
4604;DHT22;2314;48.272;11.562;2024-02-28T04:57:26;5.20;99.90
4604;DHT22;2314;48.272;11.562;2024-02-28T04:59:53;5.20;99.90
4604;DHT22;2314;48.272;11.562;2024-02-28T05:02:20;5.30;99.90
4604;DHT22;2314;48.272;11.562;2024-02-28T05:04:48;5.20;99.90
4604;DHT22;2314;48.272;11.562;2024-02-28T05:07:16;5.20;99.90
4604;DHT22;2314;48.272;11.562;2024-02-28T05:09:43;5.20;99.90
4604;DHT22;2314;48.272;11.562;2024-02-28T05:12:12;5.20;99.90
4604;DHT22;2314;48.272;11.562;2024-02-28T05:14:39;5.30;99.90
4604;DHT22;2314;48.272;11.562;2024-02-28T05:17:10;5.20;99.90
4604;DHT22;2314;48.272;11.562;2024-02-28T05:19:38;5.20;99.90
4604;DHT22;2314;48.272;11.562;2024-02-28T05:22:06;5.20;99.90
4604;DHT22;2314;48.272;11.562;2024-02-28T05:24:32;5.20;99.90
4604;DHT22;2314;48.272;11.562;2024-02-28T05:27:00;5.20;99.90
4604;DHT22;2314;48.272;11.562;2024-02-28T05:29:29;5.20;99.90
4604;DHT22;2314;48.272;11.562;2024-02-28T05:31:56;5.20;99.90
4604;DHT22;2314;48.272;11.562;2024-02-28T05:34:23;5.20;99.90
4604;DHT22;2314;48.272;11.562;2024-02-28T05:36:50;5.20;99.90
4604;DHT22;2314;48.272;11.562;2024-02-28T05:39:17;5.20;99.90
4604;DHT22;2314;48.272;11.562;2024-02-28T05:41:44;5.30;99.90
4604;DHT22;2314;48.272;11.562;2024-02-28T05:44:11;5.30;99.90
4604;DHT22;2314;48.272;11.562;2024-02-28T05:46:40;5.30;99.90
4604;DHT22;2314;48.272;11.562;2024-02-28T05:49:07;5.30;99.90
4604;DHT22;2314;48.272;11.562;2024-02-28T05:51:34;5.30;99.90
4604;DHT22;2314;48.272;11.562;2024-02-28T05:54:01;5.30;99.90
4604;DHT22;2314;48.272;11.562;2024-02-28T05:56:29;5.30;99.90
4604;DHT22;2314;48.272;11.562;2024-02-28T05:58:56;5.30;99.90
4604;DHT22;2314;48.272;11.562;2024-02-28T06:01:23;5.30;99.90
4604;DHT22;2314;48.272;11.562;2024-02-28T06:03:51;5.40;99.90
4604;DHT22;2314;48.272;11.562;2024-02-28T06:06:18;5.40;99.90
4604;DHT22;2314;48.272;11.562;2024-02-28T06:08:45;5.40;99.90
4604;DHT22;2314;48.272;11.562;2024-02-28T06:11:13;5.40;99.90
4604;DHT22;2314;48.272;11.562;2024-02-28T06:13:44;5.40;99.90
4604;DHT22;2314;48.272;11.562;2024-02-28T06:16:13;5.40;99.90
4604;DHT22;2314;48.272;11.562;2024-02-28T06:18:42;5.50;99.90
4604;DHT22;2314;48.272;11.562;2024-02-28T06:21:14;5.40;99.90
4604;DHT22;2314;48.272;11.562;2024-02-28T06:24:25;5.40;99.90
4604;DHT22;2314;48.272;11.562;2024-02-28T06:26:52;5.40;99.90
4604;DHT22;2314;48.272;11.562;2024-02-28T06:29:19;5.50;99.90
4604;DHT22;2314;48.272;11.562;2024-02-28T06:31:50;5.60;99.90
4604;DHT22;2314;48.272;11.562;2024-02-28T06:34:18;5.60;99.90
4604;DHT22;2314;48.272;11.562;2024-02-28T06:36:49;5.60;99.90
4604;DHT22;2314;48.272;11.562;2024-02-28T06:39:19;5.60;99.90
4604;DHT22;2314;48.272;11.562;2024-02-28T06:41:46;5.60;99.90
4604;DHT22;2314;48.272;11.562;2024-02-28T06:44:15;5.60;99.90
4604;DHT22;2314;48.272;11.562;2024-02-28T06:46:42;5.70;99.90
4604;DHT22;2314;48.272;11.562;2024-02-28T06:49:09;5.70;99.90
4604;DHT22;2314;48.272;11.562;2024-02-28T06:51:38;5.70;99.90
4604;DHT22;2314;48.272;11.562;2024-02-28T06:54:07;5.80;99.90
4604;DHT22;2314;48.272;11.562;2024-02-28T06:56:36;5.80;99.90
4604;DHT22;2314;48.272;11.562;2024-02-28T06:59:03;5.80;99.90
4604;DHT22;2314;48.272;11.562;2024-02-28T07:01:32;5.90;99.90
4604;DHT22;2314;48.272;11.562;2024-02-28T07:04:00;5.90;99.90
4604;DHT22;2314;48.272;11.562;2024-02-28T07:06:27;5.90;99.90
4604;DHT22;2314;48.272;11.562;2024-02-28T07:08:54;5.90;99.90
4604;DHT22;2314;48.272;11.562;2024-02-28T07:11:29;5.90;99.90
4604;DHT22;2314;48.272;11.562;2024-02-28T07:14:06;5.90;99.90
4604;DHT22;2314;48.272;11.562;2024-02-28T07:16:34;6.00;99.90
4604;DHT22;2314;48.272;11.562;2024-02-28T07:19:01;5.90;99.90
4604;DHT22;2314;48.272;11.562;2024-02-28T07:21:32;5.90;99.90
4604;DHT22;2314;48.272;11.562;2024-02-28T07:24:06;6.00;99.90
4604;DHT22;2314;48.272;11.562;2024-02-28T07:26:35;6.00;99.90
4604;DHT22;2314;48.272;11.562;2024-02-28T07:29:02;6.10;99.90
4604;DHT22;2314;48.272;11.562;2024-02-28T07:31:31;6.10;99.90
4604;DHT22;2314;48.272;11.562;2024-02-28T07:33:58;6.10;99.90
4604;DHT22;2314;48.272;11.562;2024-02-28T07:36:32;6.10;99.90
4604;DHT22;2314;48.272;11.562;2024-02-28T07:39:00;6.10;99.90
4604;DHT22;2314;48.272;11.562;2024-02-28T07:41:28;6.20;99.90
4604;DHT22;2314;48.272;11.562;2024-02-28T07:43:56;6.10;99.90
4604;DHT22;2314;48.272;11.562;2024-02-28T07:46:25;6.10;99.90
4604;DHT22;2314;48.272;11.562;2024-02-28T07:48:52;6.10;99.90
4604;DHT22;2314;48.272;11.562;2024-02-28T07:51:26;6.10;99.90
4604;DHT22;2314;48.272;11.562;2024-02-28T07:54:36;6.00;99.90
4604;DHT22;2314;48.272;11.562;2024-02-28T07:57:09;5.90;99.90
4604;DHT22;2314;48.272;11.562;2024-02-28T07:59:51;6.00;99.90
4604;DHT22;2314;48.272;11.562;2024-02-28T08:02:28;6.00;99.90
4604;DHT22;2314;48.272;11.562;2024-02-28T08:05:00;6.00;99.90
4604;DHT22;2314;48.272;11.562;2024-02-28T08:07:33;6.00;99.90
4604;DHT22;2314;48.272;11.562;2024-02-28T08:10:02;6.00;99.90
4604;DHT22;2314;48.272;11.562;2024-02-28T08:12:40;6.00;99.90
4604;DHT22;2314;48.272;11.562;2024-02-28T08:15:12;6.10;99.90
4604;DHT22;2314;48.272;11.562;2024-02-28T08:17:42;6.10;99.90
4604;DHT22;2314;48.272;11.562;2024-02-28T08:20:15;6.00;99.90
4604;DHT22;2314;48.272;11.562;2024-02-28T08:22:44;6.10;99.90
4604;DHT22;2314;48.272;11.562;2024-02-28T08:25:12;6.00;99.90
4604;DHT22;2314;48.272;11.562;2024-02-28T08:27:42;6.10;99.90
4604;DHT22;2314;48.272;11.562;2024-02-28T08:30:11;6.10;99.90
4604;DHT22;2314;48.272;11.562;2024-02-28T08:32:42;6.20;99.90
4604;DHT22;2314;48.272;11.562;2024-02-28T08:35:13;6.20;99.90
4604;DHT22;2314;48.272;11.562;2024-02-28T08:37:44;6.30;99.90
4604;DHT22;2314;48.272;11.562;2024-02-28T08:40:12;6.30;99.90
4604;DHT22;2314;48.272;11.562;2024-02-28T08:42:45;6.30;99.90
4604;DHT22;2314;48.272;11.562;2024-02-28T08:45:28;6.40;99.90
4604;DHT22;2314;48.272;11.562;2024-02-28T08:47:58;6.50;99.90
4604;DHT22;2314;48.272;11.562;2024-02-28T08:50:45;6.50;99.90
4604;DHT22;2314;48.272;11.562;2024-02-28T08:53:18;6.50;99.90
4604;DHT22;2314;48.272;11.562;2024-02-28T08:55:46;6.50;99.90
4604;DHT22;2314;48.272;11.562;2024-02-28T08:58:13;6.50;99.90
4604;DHT22;2314;48.272;11.562;2024-02-28T09:00:42;6.60;99.90
4604;DHT22;2314;48.272;11.562;2024-02-28T09:03:09;6.60;99.90
4604;DHT22;2314;48.272;11.562;2024-02-28T09:05:36;6.60;99.90
4604;DHT22;2314;48.272;11.562;2024-02-28T09:08:03;6.70;99.90
4604;DHT22;2314;48.272;11.562;2024-02-28T09:10:31;6.80;99.90
4604;DHT22;2314;48.272;11.562;2024-02-28T09:12:59;6.80;99.90
4604;DHT22;2314;48.272;11.562;2024-02-28T09:15:26;6.90;99.90
4604;DHT22;2314;48.272;11.562;2024-02-28T09:17:55;6.90;99.90
4604;DHT22;2314;48.272;11.562;2024-02-28T09:20:22;6.90;99.90
4604;DHT22;2314;48.272;11.562;2024-02-28T09:22:49;7.00;99.90
4604;DHT22;2314;48.272;11.562;2024-02-28T09:25:16;7.00;99.90
4604;DHT22;2314;48.272;11.562;2024-02-28T09:27:44;7.00;99.90
4604;DHT22;2314;48.272;11.562;2024-02-28T09:30:11;7.10;99.90
4604;DHT22;2314;48.272;11.562;2024-02-28T09:32:39;7.10;99.90
4604;DHT22;2314;48.272;11.562;2024-02-28T09:35:16;7.10;99.90
4604;DHT22;2314;48.272;11.562;2024-02-28T09:37:47;7.10;99.90
4604;DHT22;2314;48.272;11.562;2024-02-28T09:40:17;7.10;99.90
4604;DHT22;2314;48.272;11.562;2024-02-28T09:42:49;7.00;99.90
4604;DHT22;2314;48.272;11.562;2024-02-28T09:45:20;7.00;99.90
4604;DHT22;2314;48.272;11.562;2024-02-28T09:47:48;7.00;99.90
4604;DHT22;2314;48.272;11.562;2024-02-28T09:50:18;7.00;99.90
4604;DHT22;2314;48.272;11.562;2024-02-28T09:52:46;7.00;99.90
4604;DHT22;2314;48.272;11.562;2024-02-28T09:55:13;7.00;99.90
4604;DHT22;2314;48.272;11.562;2024-02-28T09:57:41;7.10;99.90
4604;DHT22;2314;48.272;11.562;2024-02-28T10:00:11;7.20;99.90
4604;DHT22;2314;48.272;11.562;2024-02-28T10:02:40;7.20;99.90
4604;DHT22;2314;48.272;11.562;2024-02-28T10:05:08;7.10;99.90
4604;DHT22;2314;48.272;11.562;2024-02-28T10:07:37;7.00;99.90
4604;DHT22;2314;48.272;11.562;2024-02-28T10:10:06;7.00;99.90
4604;DHT22;2314;48.272;11.562;2024-02-28T10:12:34;7.00;99.90
4604;DHT22;2314;48.272;11.562;2024-02-28T10:15:01;7.20;99.90
4604;DHT22;2314;48.272;11.562;2024-02-28T10:17:29;7.40;99.90
4604;DHT22;2314;48.272;11.562;2024-02-28T10:19:58;7.50;99.90
4604;DHT22;2314;48.272;11.562;2024-02-28T10:22:25;7.60;99.90
4604;DHT22;2314;48.272;11.562;2024-02-28T10:24:58;7.70;99.90
4604;DHT22;2314;48.272;11.562;2024-02-28T10:27:28;7.90;99.90
4604;DHT22;2314;48.272;11.562;2024-02-28T10:29:57;8.00;99.90
4604;DHT22;2314;48.272;11.562;2024-02-28T10:32:25;8.20;99.90
4604;DHT22;2314;48.272;11.562;2024-02-28T10:34:53;8.30;99.90
4604;DHT22;2314;48.272;11.562;2024-02-28T10:37:21;8.40;99.90
4604;DHT22;2314;48.272;11.562;2024-02-28T10:39:49;8.50;99.90
4604;DHT22;2314;48.272;11.562;2024-02-28T10:42:21;8.60;99.90
4604;DHT22;2314;48.272;11.562;2024-02-28T10:44:50;8.60;99.90
4604;DHT22;2314;48.272;11.562;2024-02-28T10:47:17;8.70;99.90
4604;DHT22;2314;48.272;11.562;2024-02-28T10:49:45;8.70;99.90
4604;DHT22;2314;48.272;11.562;2024-02-28T10:52:12;8.70;99.90
4604;DHT22;2314;48.272;11.562;2024-02-28T10:54:42;8.70;99.90
4604;DHT22;2314;48.272;11.562;2024-02-28T10:57:12;8.70;99.90
4604;DHT22;2314;48.272;11.562;2024-02-28T10:59:43;8.70;99.90
4604;DHT22;2314;48.272;11.562;2024-02-28T11:02:11;8.60;99.90
4604;DHT22;2314;48.272;11.562;2024-02-28T11:04:38;8.50;99.90
4604;DHT22;2314;48.272;11.562;2024-02-28T11:07:06;8.50;99.90
4604;DHT22;2314;48.272;11.562;2024-02-28T11:09:34;8.50;99.90
4604;DHT22;2314;48.272;11.562;2024-02-28T11:12:03;8.40;99.90
4604;DHT22;2314;48.272;11.562;2024-02-28T11:14:30;8.60;99.90
4604;DHT22;2314;48.272;11.562;2024-02-28T11:17:02;8.70;99.90
4604;DHT22;2314;48.272;11.562;2024-02-28T11:19:30;8.70;99.90
4604;DHT22;2314;48.272;11.562;2024-02-28T11:21:58;8.80;99.90
4604;DHT22;2314;48.272;11.562;2024-02-28T11:24:29;8.90;99.90
4604;DHT22;2314;48.272;11.562;2024-02-28T11:26:57;9.00;99.90
4604;DHT22;2314;48.272;11.562;2024-02-28T11:29:25;9.00;99.90
4604;DHT22;2314;48.272;11.562;2024-02-28T11:31:54;9.10;99.90
4604;DHT22;2314;48.272;11.562;2024-02-28T11:34:24;9.10;99.90
4604;DHT22;2314;48.272;11.562;2024-02-28T11:36:51;9.10;99.90
4604;DHT22;2314;48.272;11.562;2024-02-28T11:39:21;9.10;99.90
4604;DHT22;2314;48.272;11.562;2024-02-28T11:41:50;9.10;99.90
4604;DHT22;2314;48.272;11.562;2024-02-28T11:44:18;9.00;99.90
4604;DHT22;2314;48.272;11.562;2024-02-28T11:46:46;9.00;99.90
4604;DHT22;2314;48.272;11.562;2024-02-28T11:49:14;9.10;99.90
4604;DHT22;2314;48.272;11.562;2024-02-28T11:51:44;9.20;99.90
4604;DHT22;2314;48.272;11.562;2024-02-28T11:54:11;9.30;99.90
4604;DHT22;2314;48.272;11.562;2024-02-28T11:56:39;9.30;99.90
4604;DHT22;2314;48.272;11.562;2024-02-28T11:59:06;9.30;99.90
4604;DHT22;2314;48.272;11.562;2024-02-28T12:01:35;9.40;99.90
4604;DHT22;2314;48.272;11.562;2024-02-28T12:04:04;9.30;99.90
4604;DHT22;2314;48.272;11.562;2024-02-28T12:06:32;9.30;99.90
4604;DHT22;2314;48.272;11.562;2024-02-28T12:09:02;9.40;99.90
4604;DHT22;2314;48.272;11.562;2024-02-28T12:11:30;9.40;99.90
4604;DHT22;2314;48.272;11.562;2024-02-28T12:13:58;9.30;99.90
4604;DHT22;2314;48.272;11.562;2024-02-28T12:16:26;9.30;99.90
4604;DHT22;2314;48.272;11.562;2024-02-28T12:18:54;9.30;99.90
4604;DHT22;2314;48.272;11.562;2024-02-28T12:21:21;9.20;99.90
4604;DHT22;2314;48.272;11.562;2024-02-28T12:23:49;9.10;99.90
4604;DHT22;2314;48.272;11.562;2024-02-28T12:26:18;9.00;99.90
4604;DHT22;2314;48.272;11.562;2024-02-28T12:28:46;8.90;99.90
4604;DHT22;2314;48.272;11.562;2024-02-28T12:31:13;8.90;99.90
4604;DHT22;2314;48.272;11.562;2024-02-28T12:33:40;8.80;99.90
4604;DHT22;2314;48.272;11.562;2024-02-28T12:36:08;8.70;99.90
4604;DHT22;2314;48.272;11.562;2024-02-28T12:38:35;8.70;99.90
4604;DHT22;2314;48.272;11.562;2024-02-28T12:41:06;8.50;99.90
4604;DHT22;2314;48.272;11.562;2024-02-28T12:43:35;8.40;99.90
4604;DHT22;2314;48.272;11.562;2024-02-28T12:46:03;8.40;99.90
4604;DHT22;2314;48.272;11.562;2024-02-28T12:48:30;8.40;99.90
4604;DHT22;2314;48.272;11.562;2024-02-28T12:50:58;8.40;99.90
4604;DHT22;2314;48.272;11.562;2024-02-28T12:53:25;8.60;99.90
4604;DHT22;2314;48.272;11.562;2024-02-28T12:55:53;8.60;99.90
4604;DHT22;2314;48.272;11.562;2024-02-28T12:58:21;8.50;99.90
4604;DHT22;2314;48.272;11.562;2024-02-28T13:00:50;8.50;99.90
4604;DHT22;2314;48.272;11.562;2024-02-28T13:03:17;8.40;99.90
4604;DHT22;2314;48.272;11.562;2024-02-28T13:05:44;8.30;99.90
4604;DHT22;2314;48.272;11.562;2024-02-28T13:08:11;8.30;99.90
4604;DHT22;2314;48.272;11.562;2024-02-28T13:10:39;8.20;99.90
4604;DHT22;2314;48.272;11.562;2024-02-28T13:13:06;8.20;99.90
4604;DHT22;2314;48.272;11.562;2024-02-28T13:15:33;8.20;99.90
4604;DHT22;2314;48.272;11.562;2024-02-28T13:18:02;8.20;99.90
4604;DHT22;2314;48.272;11.562;2024-02-28T13:20:33;8.10;99.90
4604;DHT22;2314;48.272;11.562;2024-02-28T13:23:01;8.00;99.90
4604;DHT22;2314;48.272;11.562;2024-02-28T13:25:29;7.80;99.90
4604;DHT22;2314;48.272;11.562;2024-02-28T13:27:56;7.60;99.90
4604;DHT22;2314;48.272;11.562;2024-02-28T13:30:24;7.40;99.90
4604;DHT22;2314;48.272;11.562;2024-02-28T13:32:54;7.30;99.90
4604;DHT22;2314;48.272;11.562;2024-02-28T13:35:22;7.30;99.90
4604;DHT22;2314;48.272;11.562;2024-02-28T13:37:49;7.40;99.90
4604;DHT22;2314;48.272;11.562;2024-02-28T13:40:18;7.40;99.90
4604;DHT22;2314;48.272;11.562;2024-02-28T13:42:45;7.50;99.90
4604;DHT22;2314;48.272;11.562;2024-02-28T13:45:12;7.60;99.90
4604;DHT22;2314;48.272;11.562;2024-02-28T13:47:40;7.70;99.90
4604;DHT22;2314;48.272;11.562;2024-02-28T13:50:09;7.80;99.90
4604;DHT22;2314;48.272;11.562;2024-02-28T13:52:38;8.00;99.90
4604;DHT22;2314;48.272;11.562;2024-02-28T13:55:07;8.10;99.90
4604;DHT22;2314;48.272;11.562;2024-02-28T13:57:35;8.20;99.90
4604;DHT22;2314;48.272;11.562;2024-02-28T14:00:04;8.20;99.90
4604;DHT22;2314;48.272;11.562;2024-02-28T14:02:34;8.30;99.90
4604;DHT22;2314;48.272;11.562;2024-02-28T14:05:05;8.50;99.90
4604;DHT22;2314;48.272;11.562;2024-02-28T14:07:33;8.60;99.90
4604;DHT22;2314;48.272;11.562;2024-02-28T14:10:04;8.70;99.90
4604;DHT22;2314;48.272;11.562;2024-02-28T14:12:32;8.80;99.90
4604;DHT22;2314;48.272;11.562;2024-02-28T14:14:59;8.80;99.90
4604;DHT22;2314;48.272;11.562;2024-02-28T14:17:26;8.90;99.90
4604;DHT22;2314;48.272;11.562;2024-02-28T14:19:53;8.90;99.90
4604;DHT22;2314;48.272;11.562;2024-02-28T14:22:38;8.70;99.90
4604;DHT22;2314;48.272;11.562;2024-02-28T14:25:11;8.50;99.90
4604;DHT22;2314;48.272;11.562;2024-02-28T14:27:44;8.50;99.90
4604;DHT22;2314;48.272;11.562;2024-02-28T14:30:17;8.50;99.90
4604;DHT22;2314;48.272;11.562;2024-02-28T14:32:47;8.60;99.90
4604;DHT22;2314;48.272;11.562;2024-02-28T14:35:18;8.50;99.90
4604;DHT22;2314;48.272;11.562;2024-02-28T14:37:46;8.50;99.90
4604;DHT22;2314;48.272;11.562;2024-02-28T14:40:14;8.40;99.90
4604;DHT22;2314;48.272;11.562;2024-02-28T14:42:43;8.40;99.90
4604;DHT22;2314;48.272;11.562;2024-02-28T14:45:13;8.40;99.90
4604;DHT22;2314;48.272;11.562;2024-02-28T14:47:41;8.40;99.90
4604;DHT22;2314;48.272;11.562;2024-02-28T14:50:09;8.40;99.90
4604;DHT22;2314;48.272;11.562;2024-02-28T14:52:37;8.40;99.90
4604;DHT22;2314;48.272;11.562;2024-02-28T14:55:05;8.50;99.90
4604;DHT22;2314;48.272;11.562;2024-02-28T14:57:34;8.60;99.90
4604;DHT22;2314;48.272;11.562;2024-02-28T15:00:02;8.70;99.90
4604;DHT22;2314;48.272;11.562;2024-02-28T15:02:36;8.80;99.90
4604;DHT22;2314;48.272;11.562;2024-02-28T15:05:07;8.90;99.90
4604;DHT22;2314;48.272;11.562;2024-02-28T15:07:35;8.90;99.90
4604;DHT22;2314;48.272;11.562;2024-02-28T15:10:03;8.80;99.90
4604;DHT22;2314;48.272;11.562;2024-02-28T15:12:34;8.70;99.90
4604;DHT22;2314;48.272;11.562;2024-02-28T15:15:03;8.60;99.90
4604;DHT22;2314;48.272;11.562;2024-02-28T15:17:31;8.60;99.90
4604;DHT22;2314;48.272;11.562;2024-02-28T15:19:59;8.60;99.90
4604;DHT22;2314;48.272;11.562;2024-02-28T15:22:28;8.60;99.90
4604;DHT22;2314;48.272;11.562;2024-02-28T15:24:56;8.60;99.90
4604;DHT22;2314;48.272;11.562;2024-02-28T15:27:26;8.50;99.90
4604;DHT22;2314;48.272;11.562;2024-02-28T15:29:55;8.40;99.90
4604;DHT22;2314;48.272;11.562;2024-02-28T15:32:23;8.30;99.90
4604;DHT22;2314;48.272;11.562;2024-02-28T15:34:50;8.30;99.90
4604;DHT22;2314;48.272;11.562;2024-02-28T15:37:17;8.20;99.90
4604;DHT22;2314;48.272;11.562;2024-02-28T15:39:44;8.20;99.90
4604;DHT22;2314;48.272;11.562;2024-02-28T15:42:11;8.20;99.90
4604;DHT22;2314;48.272;11.562;2024-02-28T15:44:39;8.10;99.90
4604;DHT22;2314;48.272;11.562;2024-02-28T15:47:08;8.00;99.90
4604;DHT22;2314;48.272;11.562;2024-02-28T15:49:35;8.00;99.90
4604;DHT22;2314;48.272;11.562;2024-02-28T15:52:03;8.00;99.90
4604;DHT22;2314;48.272;11.562;2024-02-28T15:54:31;7.90;99.90
4604;DHT22;2314;48.272;11.562;2024-02-28T15:56:58;7.90;99.90
4604;DHT22;2314;48.272;11.562;2024-02-28T15:59:27;8.00;99.90
4604;DHT22;2314;48.272;11.562;2024-02-28T16:01:54;7.90;99.90
4604;DHT22;2314;48.272;11.562;2024-02-28T16:04:24;7.90;99.90
4604;DHT22;2314;48.272;11.562;2024-02-28T16:06:51;7.80;99.90
4604;DHT22;2314;48.272;11.562;2024-02-28T16:09:18;7.90;99.90
4604;DHT22;2314;48.272;11.562;2024-02-28T16:11:45;7.80;99.90